Terminal Aerodrome Forecast
Issued by NWS Paducah, KY

Home | Current Version | Previous Version | Text Only | Print | Product List | Glossary On
Versions: 1 2 3 4 5 6 7 8 9 10 11 12 13
000
FTUS43 KPAH 260520
TAFPAH
TAF
KPAH 260520Z 2606/2706 17007KT P6SM SCT060 BKN250 WS020/20035KT
     FM261000 18008KT P6SM BKN040
     FM261200 18014G22KT 5SM -DZ BKN015
     FM262200 18014G24KT P6SM BKN050
     FM270300 18015G25KT P6SM VCTS OVC025CB PROB30 2703/2706 3SM
      TSRA OVC009CB=

USA.gov is the U.S. government's official web portal to all federal, state and local government web resources and services.